Latest Weather Observations for Bombala AWS

IDN60801

Issued at 5:13 pm EDT Saturday 5 December 2020 (issued every 10 minutes, with the page automatically refreshed every 10 minutes)

About weather observations | Map of weather stations | Latest weather observations for NSW | Other Formats
Station Details ID: 070328 Name: BOMBALA AWS Lat: -37.00 Lon: 149.23 Height: 760.5 m
Data from the previous 72 hours. | See also: Recent months at Bombala AWS
Date/Time
EDT
Temp
°C
App
Temp
°C
Dew
Point
°C
Rel
Hum
%
Delta-T
°C
Wind Press
QNH
hPa
Press
MSL
hPa
Rain since
9am
mm
Dir  Spd
km/h
Gust
km/h
Spd
kts
Gust
kts
05/05:00pm 25.3 15.9 7.0 31 10.0 NW 46 69 25 37 998.9 996.2 0.0
05/04:30pm 26.3 18.6 5.3 26 11.1 NNW 35 59 19 32 999.2 996.5 0.0
05/04:27pm 26.2 19.0 5.2 26 11.1 NNW 32 54 17 29 999.2 996.5 0.0
05/04:00pm 27.3 20.9 3.1 21 12.5 NNW 26 35 14 19 999.6 996.9 0.0
05/03:30pm 27.3 21.7 0.9 18 13.0 NNW 20 32 11 17 1000.7 998.0 0.0
05/03:00pm 27.4 20.8 -0.6 16 13.6 NW 24 33 13 18 1001.6 998.9 0.0
05/02:30pm 27.0 21.1 -0.9 16 13.3 WNW 20 32 11 17 1002.9 1000.2 0.0
05/02:00pm 26.7 19.4 -3.0 14 13.7 NW 26 37 14 20 1003.7 1001.1 0.0
05/01:30pm 27.6 18.4 -4.3 12 14.4 NW 35 54 19 29 1004.4 1001.8 0.0
05/01:22pm 28.8 20.4 -2.3 13 14.7 NW 32 54 17 29 1004.5 1001.9 0.0
05/01:00pm 28.8 20.4 -2.3 13 14.7 NW 32 43 17 23 1004.8 1002.2 0.0
05/12:30pm 28.1 18.2 -3.9 12 14.6 WNW 39 54 21 29 1005.2 1002.6 0.0
05/12:00pm 27.2 17.8 -2.6 14 13.9 WNW 37 54 20 29 1006.0 1003.4 0.0
05/11:33am 26.8 17.5 -2.0 15 13.5 WNW 37 56 20 30 1006.6 1004.0 0.0
05/11:30am 26.4 16.2 -3.2 14 13.5 WNW 41 56 22 30 1006.5 1003.9 0.0
05/11:18am 26.9 19.3 -1.9 15 13.5 NW 28 48 15 26 1006.8 1004.3 0.0
05/11:00am 26.6 19.0 0.4 18 12.8 NW 30 44 16 24 1007.5 1004.9 0.0
05/10:30am 26.3 19.2 1.6 20 12.3 NW 28 39 15 21 1008.0 1005.5 0.0
05/10:00am 23.2 16.6 4.2 29 9.7 NNW 28 39 15 21 1008.4 1005.8 0.0
05/09:30am 21.4 16.3 6.1 37 8.0 NNW 22 30 12 16 1009.3 1006.8 0.0
05/09:00am 18.4 16.1 8.9 54 5.2 NNW 11 17 6 9 1010.3 1007.8 0.0
05/08:30am 15.2 13.9 9.8 70 2.9 NNW 7 11 4 6 1010.8 1008.3 0.0
05/08:00am 13.0 11.3 9.8 81 1.7 NNW 9 13 5 7 1010.9 1008.4 0.0
05/07:30am 11.2 9.4 9.6 90 0.8 N 9 13 5 7 1011.0 1008.5 0.0
05/07:00am 11.4 10.6 10.9 97 0.3 NNW 6 9 3 5 1011.5 1009.0 0.0
05/06:30am 9.9 8.5 9.6 98 0.2 NNW 7 7 4 4 1011.6 1009.1 0.0
05/06:00am 9.8 8.0 9.3 97 0.3 NNW 9 13 5 7 1011.6 1009.1 0.0
05/05:30am 10.2 8.4 9.6 96 0.3 N 9 11 5 6 1011.9 1009.4 0.0
05/05:00am 11.0 8.6 10.1 94 0.5 N 13 19 7 10 1012.2 1009.7 0.0
05/04:30am 11.6 10.1 10.5 93 0.6 NNE 9 13 5 7 1012.8 1010.3 0.0
05/04:00am 11.3 9.4 10.5 95 0.4 NNE 11 17 6 9 1012.8 1010.3 0.0
05/03:30am 10.9 9.7 10.3 96 0.3 N 7 11 4 6 1013.0 1010.5 0.0
05/03:00am 10.8 10.0 9.6 92 0.6 NNE 4 6 2 3 1013.6 1011.1 0.0
05/02:30am 10.5 9.4 8.4 87 1.1 ENE 4 7 2 4 1014.1 1011.6 0.0
05/02:00am 10.3 9.4 7.7 84 1.3 SE 2 6 1 3 1014.7 1012.2 0.0
05/01:30am 10.3 8.7 7.9 85 1.2 S 6 7 3 4 1015.1 1012.7 0.0
05/01:00am 9.7 8.4 7.8 88 1.0 SSE 4 7 2 4 1015.5 1013.0 0.0
05/12:30am 8.9 7.0 7.4 90 0.7 SSE 7 9 4 5 1015.4 1012.9 0.0
05/12:00am 7.8 5.5 5.9 88 0.9 SSE 7 9 4 5 1015.5 1013.0 0.0
 
Date/Time
EDT
Temp
°C
App
Temp
°C
Dew
Point
°C
Rel
Hum
%
Delta-T
°C
Wind Press
QNH
hPa
Press
MSL
hPa
Rain since
9am
mm
Dir  Spd
km/h
Gust
km/h
Spd
kts
Gust
kts
04/11:30pm 8.5 6.3 6.0 84 1.2 SSE 7 7 4 4 1015.6 1013.1 0.0
04/11:00pm 9.3 7.2 6.6 83 1.3 SE 7 7 4 4 1015.8 1013.3 0.0
04/10:30pm 10.3 8.3 7.2 81 1.5 ESE 7 9 4 5 1015.9 1013.4 0.0
04/10:00pm 10.3 8.4 7.5 83 1.4 ESE 7 9 4 5 1016.0 1013.6 0.0
04/09:30pm 10.9 9.7 8.0 82 1.5 SE 4 7 2 4 1016.0 1013.6 0.0
04/09:00pm 10.3 8.0 7.5 83 1.4 SSE 9 13 5 7 1015.9 1013.4 0.0
04/08:30pm 11.2 9.0 7.9 80 1.7 SE 9 11 5 6 1015.6 1013.1 0.0
04/08:00pm 12.9 10.4 8.2 73 2.4 SE 11 15 6 8 1015.2 1012.8 0.0
04/07:30pm 14.5 12.1 8.5 67 3.1 SE 11 17 6 9 1014.8 1012.4 0.0
04/07:00pm 15.5 12.8 9.0 65 3.5 SE 13 19 7 10 1014.4 1011.9 0.0
04/06:30pm 15.9 10.9 9.6 66 3.4 SSE 26 32 14 17 1014.1 1011.6 0.0
04/06:00pm 16.3 12.1 9.7 65 3.6 SE 22 30 12 16 1014.1 1011.6 0.0
04/05:30pm 16.9 13.2 10.1 64 3.7 ESE 20 30 11 16 1014.1 1011.6 0.0
04/05:00pm 17.3 12.8 10.2 63 3.9 ESE 24 35 13 19 1013.8 1011.4 0.0
04/04:30pm 18.6 13.9 10.7 60 4.4 SE 26 35 14 19 1013.4 1010.9 0.0
04/04:00pm 20.1 15.5 11.1 56 5.1 SE 26 35 14 19 1013.3 1010.8 0.0
04/03:30pm 20.8 16.5 10.9 53 5.6 SE 24 33 13 18 1013.4 1010.9 0.0
04/03:00pm 22.1 18.2 12.1 53 5.8 ESE 24 33 13 18 1013.4 1010.9 0.0
04/02:30pm 22.4 17.6 11.8 51 6.2 SE 28 39 15 21 1013.1 1010.6 0.0
04/02:00pm 26.1 19.4 -0.8 17 12.8 WSW 24 39 13 21 1013.2 1010.7 0.0
04/01:30pm 26.2 19.5 -0.8 17 12.8 WSW 24 39 13 21 1013.3 1010.8 0.0
04/01:00pm 25.2 17.8 -0.8 18 12.3 WSW 28 50 15 27 1013.5 1011.0 0.0
04/12:49pm 25.8 17.8 0.5 19 12.3 WSW 32 57 17 31 1013.4 1010.9 0.0
04/12:30pm 25.2 18.4 0.7 20 11.9 W 26 44 14 24 1013.6 1011.1 0.0
04/12:00pm 24.9 17.4 1.1 21 11.6 WSW 30 43 16 23 1013.8 1011.4 0.0
04/11:45am 25.1 18.1 1.9 22 11.5 WNW 28 50 15 27 1013.7 1011.3 0.0
04/11:30am 24.2 16.1 1.2 22 11.2 WNW 33 50 18 27 1014.0 1011.5 0.0
04/11:01am 24.0 15.2 1.6 23 11.0 W 37 57 20 31 1014.4 1011.9 0.0
04/11:00am 23.7 14.5 1.4 23 10.8 W 39 57 21 31 1014.4 1011.9 0.0
04/10:44am 23.2 15.1 0.9 23 10.7 W 33 54 18 29 1014.4 1011.9 0.0
04/10:30am 22.7 15.0 2.2 26 10.0 W 32 48 17 26 1014.5 1012.0 0.0
04/10:01am 21.6 14.9 3.8 31 8.9 WNW 28 46 15 25 1014.8 1012.4 0.0
04/10:00am 21.6 15.1 4.7 33 8.6 WNW 28 46 15 25 1014.8 1012.4 0.0
04/09:30am 19.8 16.5 7.9 46 6.4 NNW 15 22 8 12 1015.4 1012.9 0.0
04/09:00am 17.5 15.4 9.7 60 4.3 NNW 11 19 6 10 1015.8 1013.3 0.0
04/08:30am 16.2 14.0 10.7 70 3.0 NW 13 17 7 9 1016.1 1013.7 0.0
04/08:00am 13.3 12.3 13.3 100 0.0 NW 11 15 6 8 1016.1 1013.7 0.0
04/07:30am 12.1 11.0 12.1 100 0.0 NW 9 13 5 7 1016.0 1013.6 0.0
04/07:00am 11.6 10.0 11.6 100 0.0 NW 11 13 6 7 1016.0 1013.6 0.0
04/06:30am 11.6 11.0 11.6 100 0.0 NNW 6 9 3 5 1016.0 1013.6 0.0
04/06:00am 11.3 10.0 11.3 100 0.0 NNW 9 11 5 6 1016.0 1013.6 0.0
04/05:30am 11.1 9.8 11.1 100 0.0 NNW 9 11 5 6 1016.0 1013.6 0.0
04/05:00am 11.3 10.0 11.3 100 0.0 NNW 9 11 5 6 1016.2 1013.8 0.0
04/04:30am 10.6 9.5 10.6 100 0.0 NW 7 9 4 5 1016.3 1013.9 0.0
04/04:00am 10.7 10.6 10.7 100 0.0 SSE 2 6 1 3 1016.4 1014.0 0.0
04/03:30am 11.4 11.8 11.4 100 0.0 CALM 0 0 0 0 1016.5 1014.1 0.0
04/03:00am 12.2 12.9 12.2 100 0.0 CALM 0 0 0 0 1016.9 1014.4 0.0
04/02:30am 12.4 13.2 12.4 100 0.0 CALM 0 0 0 0 1017.3 1014.9 0.0
04/02:00am 12.4 13.2 12.4 100 0.0 CALM 0 2 0 1 1017.9 1015.5 0.0
04/01:30am 12.4 12.0 12.4 100 0.0 SSE 6 6 3 3 1018.3 1015.8 0.0
04/01:00am 12.4 12.0 12.4 100 0.0 SSE 6 7 3 4 1018.5 1016.1 0.0
04/12:30am 12.4 11.8 12.4 100 0.0 SSE 7 11 4 6 1018.8 1016.4 0.0
04/12:00am 12.5 10.8 12.5 100 0.0 SSE 13 15 7 8 1019.1 1016.7 0.0
 
Date/Time
EDT
Temp
°C
App
Temp
°C
Dew
Point
°C
Rel
Hum
%
Delta-T
°C
Wind Press
QNH
hPa
Press
MSL
hPa
Rain since
9am
mm
Dir  Spd
km/h
Gust
km/h
Spd
kts
Gust
kts
03/11:30pm 12.7 11.4 12.4 98 0.2 SE 11 13 6 7 1019.1 1016.7 0.0
03/11:00pm 12.8 11.0 12.2 96 0.3 SE 13 17 7 9 1019.1 1016.7 0.0
03/10:30pm 12.9 11.1 12.0 94 0.5 SE 13 17 7 9 1019.2 1016.8 0.0
03/10:00pm 13.1 10.8 11.7 91 0.8 SE 15 20 8 11 1019.4 1017.0 0.0
03/09:30pm 13.5 11.2 11.7 89 1.0 SE 15 20 8 11 1019.4 1017.0 0.0
03/09:00pm 13.9 10.9 11.9 88 1.1 SSE 19 24 10 13 1019.4 1017.0 0.0
03/08:30pm 14.2 11.2 11.9 86 1.3 SSE 19 24 10 13 1019.4 1017.0 0.0
03/08:00pm 14.9 11.3 12.0 83 1.6 SSE 22 28 12 15 1019.3 1016.9 0.0
03/07:30pm 15.8 12.4 12.4 80 1.9 SSE 22 28 12 15 1019.2 1016.8 0.0
03/07:00pm 17.3 13.4 12.2 72 2.9 SSE 24 30 13 16 1018.7 1016.3 0.0
03/06:30pm 19.1 15.8 12.8 67 3.7 SE 22 28 12 15 1018.4 1016.0 0.0
03/06:00pm 20.1 16.6 12.3 61 4.5 SSE 22 32 12 17 1017.9 1015.5 0.0
03/05:30pm 21.1 17.3 12.3 57 5.1 SE 24 30 13 16 1017.8 1015.4 0.0
03/05:00pm 22.4 19.7 12.9 55 5.6 SE 19 28 10 15 1017.8 1015.4 0.0
03/04:30pm 22.1 18.4 11.5 51 6.1 SSE 22 30 12 16 1017.8 1015.4 0.0
03/04:00pm 22.4 19.0 11.2 49 6.4 SE 20 28 11 15 1017.8 1015.4 0.0
03/03:30pm 23.0 18.6 10.4 45 7.2 SE 24 32 13 17 1018.0 1015.6 0.0
03/03:00pm 24.3 21.6 7.4 34 9.2 SE 11 17 6 9 1018.2 1015.7 0.0
03/02:30pm 25.7 21.8 1.1 20 12.1 WNW 11 22 6 12 1018.5 1016.1 0.0
03/02:00pm 24.4 21.6 1.9 23 11.1 SSW 6 11 3 6 1018.9 1016.5 0.0
03/01:30pm 25.0 21.4 3.0 24 11.1 W 11 35 6 19 1019.2 1016.8 0.0
03/01:00pm 24.0 20.1 3.3 26 10.4 N 13 22 7 12 1019.8 1017.4 0.0
03/12:30pm 22.6 20.0 4.2 30 9.4 WNW 7 17 4 9 1020.2 1017.8 0.0
03/12:00pm 21.1 18.3 5.1 35 8.2 WSW 9 17 5 9 1020.7 1018.4 0.0
03/11:30am 20.8 18.3 6.4 39 7.5 W 9 17 5 9 1021.0 1018.6 0.0
03/11:00am 19.8 16.0 5.8 40 7.2 NW 15 20 8 11 1021.3 1018.9 0.0
03/10:30am 19.1 15.4 6.2 43 6.7 NW 15 22 8 12 1021.5 1019.1 0.0
03/10:00am 17.8 14.6 7.0 49 5.6 NNW 13 20 7 11 1021.7 1019.3 0.0
03/09:30am 17.3 12.5 7.4 52 5.2 NNW 22 30 12 16 1021.8 1019.5 0.0
03/09:00am 16.3 10.8 7.5 56 4.6 NNW 26 33 14 18 1021.9 1019.6 0.0
03/08:30am 14.6 11.0 8.5 67 3.2 N 17 24 9 13 1022.1 1019.8 0.0
03/08:00am 13.3 10.4 8.2 71 2.6 N 13 22 7 12 1022.1 1019.8 0.0
03/07:30am 12.0 8.4 8.5 79 1.8 N 17 22 9 12 1022.1 1019.8 0.0
03/07:00am 10.8 8.4 8.6 86 1.1 NNE 11 17 6 9 1021.9 1019.6 0.0
03/06:30am 9.6 7.9 8.2 91 0.7 NNE 7 11 4 6 1022.0 1019.7 0.0
03/06:00am 9.3 7.2 8.2 93 0.6 NNE 9 17 5 9 1022.0 1019.7 0.0
03/05:30am 9.4 7.3 8.2 92 0.6 NNE 9 15 5 8 1022.0 1019.7 0.0
03/05:00am 10.1 8.2 9.2 94 0.5 NNE 9 17 5 9 1022.0 1019.7 0.0
03/04:30am 9.8 8.7 9.8 100 0.0 NE 6 13 3 7 1022.0 1019.7 0.0
03/04:00am 9.3 7.1 9.3 100 0.0 ENE 11 15 6 8 1022.1 1019.8 0.0
03/03:30am 9.3 7.8 9.0 98 0.2 ENE 7 15 4 8 1022.5 1020.1 0.0
03/03:00am 9.3 7.3 8.8 97 0.3 ENE 9 17 5 9 1022.9 1020.5 0.0
03/02:30am 9.1 7.6 8.3 95 0.4 E 6 9 3 5 1023.2 1020.9 0.0
03/02:00am 8.9 7.1 7.8 93 0.5 ESE 7 9 4 5 1023.7 1021.4 0.0
03/01:30am 9.1 7.2 7.4 89 0.8 ESE 7 9 4 5 1024.3 1022.0 0.0
03/01:00am 9.5 8.0 6.9 84 1.3 ESE 4 7 2 4 1024.7 1022.4 0.0
03/12:30am 9.5 7.5 6.4 81 1.5 ESE 6 7 3 4 1025.0 1022.7 0.0
03/12:00am 9.3 7.3 6.2 81 1.5 ESE 6 7 3 4 1025.3 1022.9 0.0
 
Date/Time
EDT
Temp
°C
App
Temp
°C
Dew
Point
°C
Rel
Hum
%
Delta-T
°C
Wind Press
QNH
hPa
Press
MSL
hPa
Rain since
9am
mm
Dir  Spd
km/h
Gust
km/h
Spd
kts
Gust
kts
02/11:30pm 9.3 7.1 6.4 82 1.4 SE 7 11 4 6 1025.6 1023.3 0.0
02/11:00pm 9.4 6.8 6.3 81 1.5 SE 9 11 5 6 1025.8 1023.5 0.0
02/10:30pm 9.5 7.3 6.0 79 1.7 SE 7 9 4 5 1026.0 1023.7 0.0
02/10:00pm 9.6 7.0 6.0 78 1.7 SE 9 13 5 7 1026.0 1023.7 0.0
02/09:30pm 9.8 6.0 5.6 75 2.0 SSE 15 20 8 11 1025.7 1023.4 0.0
02/09:00pm 10.1 5.8 5.3 72 2.3 S 17 20 9 11 1025.1 1022.8 0.0
02/08:30pm 10.7 6.0 5.3 69 2.6 SSE 19 22 10 12 1024.7 1022.4 0.0
02/08:00pm 11.2 6.4 5.7 69 2.6 SSE 20 26 11 14 1024.1 1021.7 0.0
02/07:30pm 11.8 7.7 6.1 68 2.8 SSE 17 24 9 13 1023.3 1021.0 0.0
02/07:00pm 13.2 8.2 6.3 63 3.4 SSE 22 30 12 16 1022.7 1020.3 0.0
02/06:30pm 14.7 8.9 6.3 57 4.2 SE 26 32 14 17 1022.0 1019.7 0.0
02/06:00pm 16.5 11.0 6.1 50 5.3 SSE 24 30 13 16 1021.5 1019.1 0.0
02/05:30pm 18.4 13.7 5.9 44 6.4 SSE 20 28 11 15 1021.0 1018.6 0.0

Other formats

Comma delimited format used in spreadsheet applications
http://www.bom.gov.au/fwo/IDN60801/IDN60801.94929.axf

JavaScript Object Notation format (JSON) in row-major order
http://www.bom.gov.au/fwo/IDN60801/IDN60801.94929.json

Data quality

Most of these data are generated automatically and are frequently updated. Quality checks on data are not normally performed. It is possible for incorrect values to appear. Refer to information at About Latest Weather Observations and please check the disclaimer before using these data.